17 agosto 2022

Tempo Codice Tempo metereologico Temp. Vista Base nuvolosa Vento METAR/SPECI
15:14
V
21 °C 10 km+ 8.900 ft 020° 020° 13 kt METAR EHLW 171314Z AUTO 02013KT 350V060 9999 SCT015 SCT075 OVC089 21/18 Q1012 WHT TEMPO 4000 SHRA RA FEW010 SCT012 SCT060CB
14:59
V
21 °C 10 km+ 7.500 ft 030° 030° 14 kt METAR EHLW 171259Z AUTO 03014KT 350V070 9999 FEW012 OVC075 21/18 Q1012 BLU TEMPO 4000 SHRA RA FEW010 SCT012 SCT060CB
14:55
V
21 °C 10 km+ 7.500 ft 030° 030° 14 kt METAR EHLW 171255Z AUTO 03014KT 350V070 9999 FEW012 SCT015 OVC075 21/18 Q1012 WHT TEMPO 4000 SHRA RA FEW010 SCT012 SCT060CB
14:25
M
20 °C 10 km+ 1.200 ft 030° 030° 12 kt METAR EHLW 171225Z AUTO 03012KT 360V060 9999 SCT010 BKN012 OVC072 20/18 Q1012 GRN TEMPO 4000 SHRA RA FEW010 SCT012 SCT060CB
14:20
V
20 °C 10 km+ 7.300 ft 030° 030° 13 kt METAR EHLW 171220Z AUTO 03013KT 360V060 9999 FEW010 SCT012 OVC073 20/18 Q1012 GRN TEMPO 4000 SHRA RA FEW010 SCT012 SCT060CB
14:11
V
20 °C 10 km+ 7.300 ft 030° 030° 14 kt METAR EHLW 171211Z AUTO 03014KT 360V060 9999 SCT010 SCT014 OVC073 20/18 Q1011 GRN TEMPO 4000 SHRA RA FEW010 SCT012 SCT060CB
14:07
V
20 °C 10 km+ 7.300 ft 030° 030° 15 kt METAR EHLW 171207Z AUTO 03015KT 360V070 9999 FEW011 SCT013 OVC073 20/18 Q1011 GRN TEMPO 4000 SHRA RA FEW012 SCT060CB
13:55
V
20 °C 10 km+ 7.400 ft 040° 040° 13 kt METAR EHLW 171155Z AUTO 04013KT 350V070 9999 OVC074 20/17 Q1011 BLU TEMPO 4500 SHRA FEW010 SCT015 SCT050CB
13:25
V
19 °C 10 km+ 8.500 ft 020° 020° 11 kt METAR EHLW 171125Z AUTO 02011KT 350V060 9999 FEW015CB SCT074 BKN085 19/17 Q1011 BLU TEMPO 4500 SHRA FEW010 SCT015 SCT050CB
13:18
V
19 °C 10 km+ 8.500 ft 020° 020° 12 kt METAR EHLW 171118Z AUTO 02012KT 350V060 9999 FEW015CB BKN085 BKN092 19/17 Q1011 BLU TEMPO 4500 SHRA FEW010 SCT015 SCT050CB
13:17
V
19 °C 10 km+ 8.500 ft 020° 020° 12 kt METAR EHLW 171117Z AUTO 02012KT 360V060 9999 SCT015CB BKN085 BKN091 19/17 Q1012 WHT TEMPO 4500 SHRA FEW010 SCT015 SCT050CB
13:04
V
19 °C 10 km+ 8.700 ft 040° 040° 15 kt METAR EHLW 171104Z AUTO 04015KT 360V080 9999 SCT015CB SCT074 BKN087 19/17 Q1011 WHT TEMPO 4500 SHRA FEW010 SCT015 SCT050CB
12:55
M
18 °C 10 km+ 1.500 ft 030° 030° 15 kt METAR EHLW 171055Z AUTO 03015KT 340V050 9999 -SHRA BKN015CB SCT027 BKN069 18/17 Q1012 RERA WHT TEMPO 4500 SHRA FEW010 SCT015 SCT050CB
12:35
M
18 °C 8 km 1.500 ft 320° 320° 8 kt METAR EHLW 171035Z AUTO 32008KT 280V010 8000 RA FEW011 BKN015CB BKN060 18/17 Q1012 WHT TEMPO 4500 SHRA FEW010 SCT015 SCT050CB
12:25
M
18 °C 7 km 1.500 ft 360° 360° 9 kt METAR EHLW 171025Z AUTO 36009KT 310V010 7000 SHRA FEW013 BKN015CB BKN063 OVC069 18/17 Q1012 WHT TEMPO 4500 SHRA SCT015 SCT050CB
12:14
I
18 °C 4,9 km 1.500 ft 340° 340° 8 kt METAR EHLW 171014Z AUTO 34008KT 300V010 4900 SHRA BKN015CB BKN057 OVC064 18/16 Q1012 GRN TEMPO 4500 SHRA SCT015 SCT050CB
12:11
M
18 °C 5 km 1.500 ft 340° 340° 8 kt METAR EHLW 171011Z AUTO 34008KT 310V010 5000 SHRA BKN015CB BKN059 OVC067 18/16 Q1012 WHT TEMPO 4500 SHRA SCT015 SCT050CB
12:00
M
18 °C 10 km+ 1.500 ft 350° 350° 8 kt METAR EHLW 171000Z AUTO 35008KT 280V360 9999 SHRA BKN015CB BKN060 OVC065 18/16 Q1012 WHT TEMPO 2200 SHRA TSRA FEW008 SCT012 SCT050CB
11:55
M
18 °C 10 km+ 1.500 ft 360° 360° 9 kt METAR EHLW 170955Z AUTO 36009KT 280V010 9999 -RA BKN015CB OVC065 18/16 Q1012 RERA WHT TEMPO 2200 SHRA TSRA FEW008 SCT012 SCT050CB
11:38
M
18 °C 6 km 1.500 ft 010° 010° 11 kt METAR EHLW 170938Z AUTO 01011KT 330V040 6000 RA FEW008 BKN015CB BKN049 OVC054 18/16 Q1012 WHT TEMPO 2200 SHRA TSRA FEW008 SCT012 SCT050CB
11:32
I
19 °C 4,9 km 1.500 ft 020° 020° 8 kt METAR EHLW 170932Z AUTO 02008KT 330V030 4900 +SHRA FEW008 BKN015CB BKN052 BKN060 19/17 Q1012 GRN TEMPO 2200 SHRA SCT012 SCT050CB
11:25
I
19 °C 3,5 km 5.000 ft 020° 020° 7 kt METAR EHLW 170925Z AUTO 02007KT 330V040 3500 R05/P3000D +SHRA SCT015CB BKN050 BKN057 19/18 Q1012 YLO TEMPO 2200 SHRA SCT012 SCT050CB
11:18
M
19 °C 6 km 1.500 ft 010° 010° 8 kt METAR EHLW 170918Z AUTO 01008KT 6000 RA BKN015CB SCT054 BKN070 19/18 Q1012 WHT TEMPO 2200 SHRA SCT012 SCT050CB
11:11
I
19 °C 4,3 km 1.500 ft 020° 020° 8 kt METAR EHLW 170911Z AUTO 02008KT 4300 SHRA BKN015CB BKN077 OVC083 19/18 Q1012 GRN TEMPO 2200 SHRA SCT012 SCT050CB
11:07
I
19 °C 4,9 km 1.500 ft 010° 010° 6 kt METAR EHLW 170907Z AUTO 01006KT 330V030 4900 -RA BKN015CB SCT070 BKN077 19/18 Q1012 GRN TEMPO 2200 SHRA SCT012 SCT050CB
10:55
I
19 °C 2,4 km 1.500 ft 020° 020° 3 kt METAR EHLW 170855Z AUTO 02003KT 340V040 2400 R05/2400D +RA BKN015CB SCT024 OVC042 19/19 Q1013 YLO TEMPO 1800 SHRA TSRA SCT012 SCT050CB
10:40
I
19 °C 3,2 km 5.500 ft 360° 360° 5 kt METAR EHLW 170840Z AUTO 36005KT 3200 R05/P3000N RA SCT015CB BKN055 OVC062 19/19 Q1012 YLO TEMPO 3000 SHRA TSRA SCT012 SCT050CB
10:33
I
20 °C 4,5 km 3.100 ft 360° 360° 5 kt METAR EHLW 170833Z AUTO 36005KT 4500 -RA FEW015CB SCT023 BKN031 20/19 Q1012 GRN TEMPO 3000 SHRA TSRA SCT012 SCT050CB
10:25
M
20 °C 5 km 6.400 ft 340° 340° 3 kt METAR EHLW 170825Z AUTO 34003KT 330V030 5000 -DZ FEW006 FEW015CB BKN064 OVC070 20/19 Q1012 WHT TEMPO 3000 SHRA TSRA SCT012 SCT050CB
10:10
M
20 °C 5 km 7.100 ft 020° 020° 5 kt METAR EHLW 170810Z AUTO 02005KT 5000 -DZ FEW015CB BKN071 OVC077 20/19 Q1012 WHT TEMPO 3000 SHRA TSRA SCT012 SCT050CB
09:57
M
20 °C 5 km 7.500 ft 010° 010° 8 kt METAR EHLW 170757Z AUTO 01008KT 5000 -RA FEW015CB SCT056 OVC075 20/19 Q1011 WHT TEMPO 3000 SHRA TSRA SCT012 SCT050CB
09:55
I
20 °C 4,7 km 7.300 ft 020° 020° 7 kt METAR EHLW 170755Z AUTO 02007KT 360V060 4700 -RA FEW015CB OVC073 20/19 Q1011 RERA REDZ GRN TEMPO 3000 SHRA TSRA SCT012 SCT050CB
09:41
I
20 °C 4,2 km 7.900 ft 020° 020° 7 kt METAR EHLW 170741Z AUTO 02007KT 4200 -DZ SCT015CB BKN079 BKN086 20/19 Q1011 GRN TEMPO 3000 SHRA SCT012 SCT050CB
09:30
I
20 °C 2,9 km 9.800 ft 030° 030° 7 kt METAR EHLW 170730Z AUTO 03007KT 360V060 2900 R05/2900U DZRA SCT015CB SCT092 OVC098 20/19 Q1011 YLO TEMPO 3000 SHRA SCT012 SCT050CB
09:25
I
19 °C 2,6 km 10.000 ft 020° 020° 7 kt METAR EHLW 170725Z AUTO 02007KT 2600 R05/2600U -RA SCT015CB SCT090 OVC100 19/19 Q1011 YLO TEMPO 3000 SHRA SCT012 SCT050CB
09:11
I
19 °C 2,1 km 9.900 ft 020° 020° 6 kt METAR EHLW 170711Z AUTO 02006KT 2100 R05/2100U -RA SCT015CB SCT088 OVC099 19/19 Q1011 YLO TEMPO 3000 SHRA SCT012 SCT050CB
09:03
I
19 °C 1,8 km 7.500 ft 360° 360° 4 kt METAR EHLW 170703Z AUTO 36004KT 1800 R05/1800D RA FEW015CB SCT064 BKN075 19/19 Q1011 YLO TEMPO 3000 SHRA SCT012 SCT050CB
08:59
I
19 °C 2,1 km 7.400 ft 350° 350° 4 kt METAR EHLW 170659Z AUTO 35004KT 310V010 2100 R05/2100D SHRA FEW007 FEW015CB BKN074 OVC082 19/19 Q1012 YLO TEMPO 3000 SHRA SCT012 SCT050CB BECMG 6000 NSW SCT020
08:55
I
19 °C 2,5 km 8.300 ft Var Var 2 kt METAR EHLW 170655Z AUTO VRB02KT 2500 R05/2500D -RADZ FEW007 FEW015CB SCT075 BKN083 19/19 Q1012 YLO TEMPO 3000 SHRA SCT012 SCT050CB BECMG 6000 NSW SCT020
08:44
I
19 °C 3 km 8.400 ft Var 000° 0 kt METAR EHLW 170644Z AUTO 00000KT 3000 R05/3000U DZRA FEW015CB BKN084 OVC090 19/19 Q1012 YLO TEMPO 3000 SHRA SCT012 SCT050CB BECMG 6000 NSW SCT020
08:25
I
19 °C 2,6 km 9.200 ft 270° 270° 1 kt METAR EHLW 170625Z AUTO 27001KT 2600 R05/2600N -DZ FEW006 FEW015CB SCT056 BKN092 19/19 Q1011 YLO TEMPO 3000 SHRA SCT012 SCT050CB BECMG 6000 NSW SCT020
08:17
I
19 °C 2,4 km 2.000 ft Var Var 2 kt METAR EHLW 170617Z AUTO VRB02KT 2400 R05/2400N BR FEW006 SCT008 BKN020 19/19 Q1011 YLO TEMPO 3000 SHRA SCT012 SCT050CB BECMG 6000 NSW SCT020
08:00
L
18 °C 2,2 km 300 ft 270° 270° 4 kt METAR EHLW 170600Z AUTO 27004KT 2200 R05/2200U BR BKN003 OVC004 18/18 Q1011 YLO TEMPO 3000 SHRA SCT012 SCT050CB BECMG 6000 NSW SCT020
07:55
L
18 °C 2 km 100 ft 280° 280° 6 kt METAR EHLW 170555Z AUTO 28006KT 240V300 2000 R05/2000U BR BKN001 OVC002 18/18 Q1011 RED TEMPO 3000 SHRA SCT012 SCT050CB BECMG 6000 NSW SCT020
07:41
I
18 °C 1,7 km - 260° 260° 7 kt METAR EHLW 170541Z AUTO 26007KT 220V320 1700 R05/0900U BR OVC000 18/17 Q1011 RED TEMPO 3000 SHRA SCT012 SCT050CB BECMG 6000 NSW SCT020
07:25
L
17 °C 300 m - Var Var 2 kt METAR EHLW 170525Z AUTO VRB02KT 0300 R05/0275N FG OVC000 17/17 Q1011 RED TEMPO 3000 SHRA SCT012 SCT050CB BECMG 6000 NSW SCT020
07:18
L
17 °C 250 m - Var Var 2 kt METAR EHLW 170518Z AUTO VRB02KT 0250 FG OVC000 17/17 Q1011 RED
06:55
L
17 °C 150 m - Var Var 2 kt METAR EHLW 170455Z AUTO VRB02KT 0150 FG OVC000 17/17 Q1011 RED
06:25
L
16 °C 250 m - Var Var 1 kt METAR EHLW 170425Z AUTO VRB01KT 0250 FG OVC000 16/16 Q1011 RED
05:55
L
16 °C 400 m - Var Var 2 kt METAR EHLW 170355Z AUTO VRB02KT 0400 FG OVC000 16/16 Q1010 RED
05:25
L
17 °C 200 m - Var Var 4 kt METAR EHLW 170325Z AUTO VRB04KT 0200 FG OVC000 17/17 Q1010 RED
04:55
L
16 °C 200 m - 030° 030° 2 kt METAR EHLW 170255Z AUTO 03002KT 0200 FG OVC000 16/16 Q1011 RED
04:34
L
16 °C 200 m - 050° 050° 3 kt METAR EHLW 170234Z AUTO 05003KT 350V140 0200 FG BKN000 16/16 Q1010 RED
04:33
L
17 °C 150 m - 060° 060° 3 kt METAR EHLW 170233Z AUTO 06003KT 350V140 0150 FG SCT000 17/16 Q1010 RED
04:25
L
17 °C 400 m - 080° 080° 3 kt METAR EHLW 170225Z AUTO 08003KT 020V130 0400 FG FEW000 17/16 Q1010 RED
04:06
L
17 °C 500 m - Var Var 2 kt METAR EHLW 170206Z AUTO VRB02KT 0500 FG NCD 17/17 Q1010 RED
04:05
L
17 °C 800 m - Var Var 2 kt METAR EHLW 170205Z AUTO VRB02KT 0800 FG NCD 17/17 Q1010 AMB
03:55
I
17 °C 3,2 km 12.000 ft 060° 060° 3 kt METAR EHLW 170155Z AUTO 06003KT 020V100 3200 BR BKN120 17/17 Q1010 YLO
03:25
I
17 °C 3,3 km 12.000 ft 030° 030° 2 kt METAR EHLW 170125Z AUTO 03002KT 3300 BR OVC120 17/17 Q1010 YLO
02:55
I
17 °C 2,7 km 11.000 ft 050° 050° 3 kt METAR EHLW 170055Z AUTO 05003KT 2700 BR OVC110 17/17 Q1010 YLO
02:29
I
18 °C 3,1 km 12.000 ft Var Var 2 kt METAR EHLW 170029Z AUTO VRB02KT 3100 BR OVC120/// 18/18 Q1010 YLO
02:25
I
18 °C 3,8 km 11.000 ft Var Var 2 kt METAR EHLW 170025Z AUTO VRB02KT 3800 BR OVC110 18/17 Q1010 GRN
02:07
I
18 °C 3,8 km 12.000 ft Var Var 2 kt METAR EHLW 170007Z AUTO VRB02KT 3800 BR OVC120 18/18 Q1010 GRN
01:56
I
18 °C 3,8 km 10.000 ft 060° 060° 3 kt METAR EHLW 162356Z AUTO 06003KT 020V120 3800 BR OVC100 18/18 Q1011 GRN
01:55
I
18 °C 3,5 km 10.000 ft 040° 040° 3 kt METAR EHLW 162355Z AUTO 04003KT 360V080 3500 BR FEW091 OVC100 18/18 Q1011 YLO
01:44
I
18 °C 4,4 km 10.000 ft 050° 050° 3 kt METAR EHLW 162344Z AUTO 05003KT 330V110 4400 BR FEW094 OVC100 18/18 Q1011 GRN
01:25
I
19 °C 3,2 km 10.000 ft 070° 070° 3 kt METAR EHLW 162325Z AUTO 07003KT 050V150 3200 BR OVC100 19/18 Q1011 YLO
01:01
I
18 °C 3,2 km 10.000 ft 080° 080° 3 kt METAR EHLW 162301Z AUTO 08003KT 050V140 3200 BR OVC100 18/18 Q1011 YLO
00:55
I
18 °C 3,9 km 11.000 ft 080° 080° 3 kt METAR EHLW 162255Z AUTO 08003KT 360V150 3900 BR OVC110 18/18 Q1011 GRN
00:26
I
18 °C 3,3 km 12.000 ft 070° 070° 3 kt METAR EHLW 162226Z AUTO 07003KT 360V150 3300 BR OVC120 18/18 Q1011 YLO
00:25
I
18 °C 3,8 km 12.000 ft 070° 070° 3 kt METAR EHLW 162225Z AUTO 07003KT 360V150 3800 BR OVC120 18/18 Q1011 GRN
00:08
I
18 °C 4,5 km 10.000 ft 070° 070° 3 kt METAR EHLW 162208Z AUTO 07003KT 040V140 4500 BR OVC100 18/18 Q1011 GRN

16 agosto 2022

Tempo Codice Tempo metereologico Temp. Vista Base nuvolosa Vento METAR/SPECI
23:55
I
18 °C 3,9 km 10.000 ft 060° 060° 4 kt METAR EHLW 162155Z AUTO 06004KT 020V170 3900 BR OVC100 18/18 Q1011 GRN
23:40
I
18 °C 4,7 km 10.000 ft 060° 060° 3 kt METAR EHLW 162140Z AUTO 06003KT 360V130 4700 BR OVC100 18/18 Q1011 GRN
23:30
M
18 °C 5 km 12.000 ft 070° 070° 4 kt METAR EHLW 162130Z AUTO 07004KT 020V150 5000 BR OVC120 18/18 Q1011 WHT
23:25
I
18 °C 4,3 km 12.000 ft 060° 060° 4 kt METAR EHLW 162125Z AUTO 06004KT 020V120 4300 BR OVC120 18/17 Q1011 GRN
23:12
I
17 °C 4,1 km 13.000 ft 060° 060° 3 kt METAR EHLW 162112Z AUTO 06003KT 350V140 4100 BR OVC130 17/17 Q1011 GRN
22:55
M
18 °C 6 km 27.000 ft Var Var 1 kt METAR EHLW 162055Z AUTO VRB01KT 6000 BR SCT130 OVC270 18/17 Q1010 WHT
22:25
M
17 °C 6 km 31.000 ft 360° 360° 3 kt METAR EHLW 162025Z AUTO 36003KT 6000 BR OVC310 17/17 Q1010 WHT
21:55
M
17 °C 7 km 27.000 ft 010° 010° 5 kt METAR EHLW 161955Z AUTO 01005KT 7000 BR FEW210 OVC270 17/16 Q1010 WHT
21:34
M
18 °C 7 km 21.000 ft 340° 340° 3 kt METAR EHLW 161934Z AUTO 34003KT 7000 BR SCT160 OVC210 18/17 Q1010 WHT
21:25
V
18 °C 8 km 16.000 ft 340° 340° 3 kt METAR EHLW 161925Z AUTO 34003KT 8000 BR OVC160 18/17 Q1010 BLU
20:55
V
19 °C 9 km 14.000 ft 330° 330° 4 kt METAR EHLW 161855Z AUTO 33004KT 290V350 9000 BR OVC140 19/18 Q1009 BLU
20:25
V
21 °C 10 km+ 12.000 ft 300° 300° 4 kt METAR EHLW 161825Z AUTO 30004KT 9999 OVC120 21/18 Q1009 BLU
19:55
V
22 °C 10 km+ 12.000 ft 310° 310° 5 kt METAR EHLW 161755Z AUTO 31005KT 260V350 9999 OVC120 22/19 Q1009 BLU
19:25
V
22 °C 10 km+ 11.000 ft 290° 290° 5 kt METAR EHLW 161725Z AUTO 29005KT 260V340 9999 OVC110 22/18 Q1009 BLU
18:55
V
22 °C 10 km+ 11.000 ft 310° 310° 7 kt METAR EHLW 161655Z AUTO 31007KT 260V320 9999 OVC110 22/18 Q1009 BLU
18:25
V
22 °C 10 km+ 11.000 ft 290° 290° 7 kt METAR EHLW 161625Z AUTO 29007KT 280V350 9999 OVC110 22/17 Q1009 BLU
17:55
V
23 °C 10 km+ 12.000 ft 270° 270° 7 kt METAR EHLW 161555Z AUTO 27007KT 260V330 9999 OVC120 23/18 Q1008 BLU
17:25
V
24 °C 10 km+ 15.000 ft 280° 280° 8 kt METAR EHLW 161525Z AUTO 28008KT 250V320 9999 BKN150 OVC250 24/18 Q1008 BLU
16:55
V
24 °C 10 km+ 23.000 ft 280° 280° 8 kt METAR EHLW 161455Z AUTO 28008KT 220V280 9999 SCT170 OVC230 24/17 Q1008 BLU
16:25
V
25 °C 10 km+ 26.000 ft 260° 260° 9 kt METAR EHLW 161425Z AUTO 26009KT 220V300 9999 SCT180 OVC260 25/16 Q1008 BLU
15:55
V
25 °C 10 km+ 15.000 ft 280° 280° 10 kt METAR EHLW 161355Z AUTO 28010KT 230V320 9999 OVC150 25/16 Q1008 BLU
15:25
V
25 °C 10 km+ 18.000 ft 280° 280° 9 kt METAR EHLW 161325Z AUTO 28009KT 230V300 9999 OVC180 25/18 Q1008 BLU NOSIG
14:55
V
25 °C 10 km+ 21.000 ft 260° 260° 10 kt METAR EHLW 161255Z AUTO 26010KT 230V290 9999 OVC210 25/16 Q1008 BLU NOSIG
14:25
V
25 °C 10 km+ 25.000 ft 250° 250° 10 kt METAR EHLW 161225Z AUTO 25010KT 210V280 9999 OVC250 25/16 Q1008 BLU NOSIG
13:55
V
25 °C 10 km+ 26.000 ft 240° 240° 12 kt METAR EHLW 161155Z AUTO 24012KT 200V270 9999 BKN260 OVC330 25/16 Q1007 BLU NOSIG
13:25
V
25 °C 10 km+ - 250° 250° 11 kt METAR EHLW 161125Z AUTO 25011KT 190V260 9999 NCD 25/18 Q1007 BLU NOSIG
12:55
V
25 °C 10 km+ - 250° 250° 12 kt METAR EHLW 161055Z AUTO 25012KT 210V290 9999 FEW022 25/19 Q1007 BLU NOSIG
12:25
V
26 °C 10 km+ - 230° 230° 9 kt METAR EHLW 161025Z AUTO 23009KT 190V260 9999 FEW020 26/19 Q1006 BLU NOSIG
11:55
V
24 °C 10 km+ - 220° 220° 9 kt METAR EHLW 160955Z AUTO 22009KT 190V250 9999 FEW350 24/19 Q1006 BLU NOSIG
11:25
V
24 °C 10 km+ - 220° 220° 10 kt METAR EHLW 160925Z AUTO 22010KT 190V250 9999 NCD 24/19 Q1006 BLU NOSIG
10:55
V
23 °C 10 km+ - 230° 230° 10 kt METAR EHLW 160855Z AUTO 23010KT 190V260 9999 NCD 23/19 Q1006 BLU NOSIG
10:25
V
22 °C 9 km - 220° 220° 12 kt METAR EHLW 160825Z AUTO 22012KT 180V250 9000 BR NCD 22/19 Q1006 BLU NOSIG
09:56
V
22 °C 9 km - 220° 220° 11 kt METAR EHLW 160756Z AUTO 22011KT 180V240 9000 BR FEW013 SCT290 22/19 Q1005 BLU TEMPO SCT013
09:55
V
22 °C 9 km - 210° 210° 11 kt METAR EHLW 160755Z AUTO 21011KT 180V240 9000 BR FEW013 SCT120 22/19 Q1005 BLU NOSIG
09:25
V
22 °C 9 km 27.000 ft 210° 210° 13 kt METAR EHLW 160725Z AUTO 21013KT 170V240 9000 BR OVC270 22/18 Q1005 BLU NOSIG
08:55
V
22 °C 8 km - 220° 220° 11 kt METAR EHLW 160655Z AUTO 22011KT 180V240 8000 BR SCT100 22/19 Q1005 BLU NOSIG
08:31
V
21 °C 9 km 26.000 ft 200° 200° 8 kt METAR EHLW 160631Z AUTO 20008KT 170V240 9000 BR BKN260 21/18 Q1005 BLU NOSIG
08:25
V
21 °C 9 km 28.000 ft 190° 190° 7 kt METAR EHLW 160625Z AUTO 19007KT 150V230 9000 BR OVC280 21/18 Q1005 BLU
08:13
V
20 °C 8 km 29.000 ft 190° 190° 7 kt METAR EHLW 160613Z AUTO 19007KT 150V230 8000 BR BKN290 20/18 Q1005 BLU
07:55
M
20 °C 7 km - 190° 190° 7 kt METAR EHLW 160555Z AUTO 19007KT 160V220 7000 BR SCT310 20/18 Q1005 WHT
07:33
M
19 °C 7 km - 190° 190° 6 kt METAR EHLW 160533Z AUTO 19006KT 160V220 7000 BR NCD 19/17 Q1005 WHT
07:26
V
19 °C 8 km - 190° 190° 6 kt METAR EHLW 160526Z AUTO 19006KT 8000 BR NCD 19/17 Q1005 BLU
07:25
M
19 °C 7 km - 190° 190° 6 kt METAR EHLW 160525Z AUTO 19006KT 7000 BR NCD 19/17 Q1005 WHT
06:55
M
19 °C 6 km - 170° 170° 6 kt METAR EHLW 160455Z AUTO 17006KT 140V200 6000 BR NCD 19/17 Q1004 WHT
06:25
M
19 °C 5 km - 160° 160° 4 kt METAR EHLW 160425Z AUTO 16004KT 5000 BR NCD 19/17 Q1004 WHT
05:55
M
19 °C 6 km - 170° 170° 4 kt METAR EHLW 160355Z AUTO 17004KT 6000 BR NCD 19/17 Q1004 WHT
05:37
M
19 °C 7 km - 170° 170° 4 kt METAR EHLW 160337Z AUTO 17004KT 150V210 7000 BR NCD 19/17 Q1004 WHT
05:25
V
20 °C 9 km - 180° 180° 4 kt METAR EHLW 160325Z AUTO 18004KT 9000 BR NCD 20/17 Q1004 BLU
04:55
V
19 °C 8 km - 180° 180° 4 kt METAR EHLW 160255Z AUTO 18004KT 160V220 8000 BR NCD 19/18 Q1004 BLU
04:38
V
20 °C 8 km - 190° 190° 5 kt METAR EHLW 160238Z AUTO 19005KT 160V220 8000 BR NCD 20/18 Q1005 BLU
04:26
M
20 °C 7 km - 180° 180° 4 kt METAR EHLW 160226Z AUTO 18004KT 7000 BR SCT340 20/18 Q1005 WHT
04:25
V
20 °C 8 km 34.000 ft 180° 180° 3 kt METAR EHLW 160225Z AUTO 18003KT 8000 BR BKN340 20/18 Q1005 BLU
03:55
V
20 °C 8 km 13.000 ft 180° 180° 4 kt METAR EHLW 160155Z AUTO 18004KT 120V210 8000 BR OVC130 20/18 Q1005 BLU
03:25
V
21 °C 10 km+ 12.000 ft 180° 180° 4 kt METAR EHLW 160125Z AUTO 18004KT 140V220 9999 OVC120 21/18 Q1005 BLU
02:55
V
21 °C 10 km+ 12.000 ft 170° 170° 5 kt METAR EHLW 160055Z AUTO 17005KT 140V200 9999 FEW015CB OVC120 21/18 Q1005 BLU
02:25
V
21 °C 10 km+ 10.000 ft 160° 160° 5 kt METAR EHLW 160025Z AUTO 16005KT 9999 SCT098 OVC100 21/18 Q1005 BLU
01:25
V
20 °C 10 km+ 11.000 ft 190° 190° 3 kt METAR EHLW 152325Z AUTO 19003KT 160V220 9999 FEW099 OVC110 20/18 Q1005 BLU
00:55
V
21 °C 10 km+ 10.000 ft 170° 170° 3 kt METAR EHLW 152255Z AUTO 17003KT 9999 OVC100 21/18 Q1005 BLU
00:25
V
21 °C 10 km+ 10.000 ft 190° 190° 4 kt METAR EHLW 152225Z AUTO 19004KT 9999 OVC100 21/18 Q1005 BLU

15 agosto 2022

Tempo Codice Tempo metereologico Temp. Vista Base nuvolosa Vento METAR/SPECI
23:55
V
20 °C 10 km+ 11.000 ft 190° 190° 3 kt METAR EHLW 152155Z AUTO 19003KT 9999 OVC110 20/18 Q1005 BLU
23:25
V
20 °C 10 km+ 13.000 ft Var Var 1 kt METAR EHLW 152125Z AUTO VRB01KT 9999 OVC130 20/17 Q1005 BLU
22:55
V
20 °C 10 km+ 13.000 ft 120° 120° 3 kt METAR EHLW 152055Z AUTO 12003KT 060V120 9999 OVC130 20/17 Q1005 BLU
22:25
V
21 °C 10 km+ 11.000 ft 220° 220° 3 kt METAR EHLW 152025Z AUTO 22003KT 9999 OVC110 21/18 Q1005 BLU
21:55
V
21 °C 10 km+ 15.000 ft 230° 230° 4 kt METAR EHLW 151955Z AUTO 23004KT 9999 OVC150 21/18 Q1005 BLU
21:25
V
21 °C 10 km+ 15.000 ft Var Var 1 kt METAR EHLW 151925Z AUTO VRB01KT 9999 OVC150 21/17 Q1005 BLU
20:55
V
22 °C 10 km+ 15.000 ft Var Var 2 kt METAR EHLW 151855Z AUTO VRB02KT 9999 OVC150 22/17 Q1004 BLU
20:25
V
22 °C 10 km+ 13.000 ft 240° 240° 5 kt METAR EHLW 151825Z AUTO 24005KT 9999 OVC130 22/18 Q1004 BLU
19:55
V
22 °C 10 km+ 12.000 ft 260° 260° 5 kt METAR EHLW 151755Z AUTO 26005KT 9999 OVC120 22/17 Q1004 BLU
19:25
V
23 °C 10 km+ 12.000 ft 270° 270° 6 kt METAR EHLW 151725Z AUTO 27006KT 9999 OVC120 23/17 Q1004 BLU
18:55
V
23 °C 10 km+ 13.000 ft 270° 270° 7 kt METAR EHLW 151655Z AUTO 27007KT 230V290 9999 OVC130 23/17 Q1004 BLU
18:25
V
23 °C 10 km+ 14.000 ft 270° 270° 8 kt METAR EHLW 151625Z AUTO 27008KT 220V300 9999 OVC140 23/17 Q1003 BLU
17:55
V
24 °C 10 km+ 12.000 ft 260° 260° 12 kt METAR EHLW 151555Z AUTO 26012KT 220V280 9999 OVC120 24/17 Q1003 BLU
17:25
V
24 °C 10 km+ 12.000 ft 260° 260° 12 kt METAR EHLW 151525Z AUTO 26012KT 9999 OVC120 24/18 Q1003 BLU
16:55
V
25 °C 10 km+ 12.000 ft 260° 260° 11 kt METAR EHLW 151455Z AUTO 26011KT 9999 OVC120 25/18 Q1003 BLU
16:25
V
26 °C 10 km+ 12.000 ft 270° 270° 11 kt METAR EHLW 151425Z AUTO 27011KT 230V290 9999 OVC120 26/17 Q1003 BLU
15:55
V
26 °C 10 km+ - 270° 270° 11 kt METAR EHLW 151355Z AUTO 27011KT 230V320 9999 FEW130 26/18 Q1003 BLU
15:25
V
26 °C 10 km+ 10.000 ft 280° 280° 7 kt METAR EHLW 151325Z AUTO 28007KT 250V320 9999 FEW051 SCT096 OVC100 26/18 Q1003 BLU TEMPO 23010G25KT 3000 TSRA SCT060CB
14:55
V
25 °C 10 km+ 10.000 ft 280° 280° 9 kt METAR EHLW 151255Z AUTO 28009KT 240V310 9999 OVC100 25/16 Q1003 BLU TEMPO 23010G25KT 3000 TSRA SCT060CB
Dati più vecchi

Noi e le terze parti seguiamo il tuo comportamento in internet sul nostro sito web con i cookie. Se continui, riteniamo che tu sia d'accordo con la nostra politica sui cookie. Per saperne di più